createdAt,value
2019-03-19T00:02:41.324Z,81.21
2019-03-19T00:07:47.254Z,81.68
2019-03-19T00:12:54.332Z,81.34
2019-03-19T00:18:00.270Z,82.01
2019-03-19T00:23:07.394Z,81.24
2019-03-19T00:28:14.370Z,81.99
2019-03-19T00:33:21.359Z,81.49
2019-03-19T00:38:28.346Z,81.30
2019-03-19T00:43:34.242Z,81.96
2019-03-19T00:48:41.194Z,82.25
2019-03-19T00:53:48.197Z,81.60
2019-03-19T00:58:54.256Z,81.60
2019-03-19T01:04:01.254Z,82.21
2019-03-19T01:09:09.023Z,82.45
2019-03-19T01:14:15.113Z,82.34
2019-03-19T01:19:22.055Z,82.50
2019-03-19T01:24:28.235Z,82.79
2019-03-19T01:29:35.201Z,82.32
2019-03-19T01:34:42.340Z,82.96
2019-03-19T01:39:49.376Z,82.96
2019-03-19T01:44:56.404Z,83.21
2019-03-19T01:50:03.372Z,84.10
2019-03-19T01:55:10.340Z,84.19
2019-03-19T02:00:17.430Z,84.25
2019-03-19T02:05:24.413Z,84.32
2019-03-19T02:10:31.461Z,84.22
2019-03-19T02:15:38.542Z,84.42
2019-03-19T02:20:45.449Z,84.03
2019-03-19T02:25:52.607Z,84.33
2019-03-19T02:30:59.551Z,84.33
2019-03-19T02:36:06.609Z,84.43
2019-03-19T02:41:13.632Z,83.90
2019-03-19T02:46:20.690Z,83.61
2019-03-19T02:51:27.673Z,83.85
2019-03-19T02:56:34.537Z,83.06
2019-03-19T03:01:41.543Z,83.06
2019-03-19T03:06:48.534Z,82.86
2019-03-19T03:11:55.532Z,82.71
2019-03-19T03:17:02.565Z,82.50
2019-03-19T03:22:09.511Z,83.22
2019-03-19T03:27:16.423Z,82.52
2019-03-19T03:34:24.426Z,83.75
2019-03-19T03:39:31.561Z,83.13
2019-03-19T03:44:38.418Z,83.81
2019-03-19T03:49:45.414Z,83.81
2019-03-19T03:54:52.397Z,84.31
2019-03-19T03:59:59.411Z,83.63
2019-03-19T04:05:06.897Z,84.61
2019-03-19T04:10:14.006Z,84.20
2019-03-19T04:15:21.306Z,84.34
2019-03-19T04:20:28.395Z,84.33
2019-03-19T04:25:35.428Z,84.33
2019-03-19T04:30:42.417Z,84.24
2019-03-19T04:35:49.411Z,84.70
2019-03-19T04:40:56.422Z,84.35
2019-03-19T04:46:03.431Z,84.00
2019-03-19T04:51:10.390Z,84.23
2019-03-19T04:56:17.372Z,84.23
2019-03-19T05:01:24.396Z,84.30
2019-03-19T05:06:31.379Z,83.92
2019-03-19T05:11:38.396Z,84.72
2019-03-19T05:16:45.477Z,84.73
2019-03-19T05:21:52.397Z,84.88
2019-03-19T05:26:58.277Z,85.02
2019-03-19T05:32:05.323Z,84.01
2019-03-19T05:37:12.356Z,84.34
2019-03-19T05:42:19.365Z,84.84
2019-03-19T05:47:36.571Z,84.54
2019-03-19T05:52:34.162Z,84.98
2019-03-19T05:57:49.319Z,84.39
2019-03-19T06:02:48.562Z,84.39
2019-03-19T06:07:55.403Z,84.40
2019-03-19T06:13:02.488Z,84.29
2019-03-19T06:18:09.421Z,84.39
2019-03-19T06:23:16.375Z,84.39
2019-03-19T06:28:23.373Z,84.19
2019-03-19T06:33:30.338Z,84.55
2019-03-19T06:38:37.383Z,84.45
2019-03-19T06:43:44.331Z,84.34
2019-03-19T06:48:51.379Z,84.11
2019-03-19T06:53:58.371Z,84.23
2019-03-19T06:59:05.354Z,83.37
2019-03-19T07:04:12.482Z,83.09
2019-03-19T07:09:19.453Z,82.90
2019-03-19T07:14:26.444Z,80.29
2019-03-19T07:19:33.318Z,81.21
2019-03-19T07:24:40.343Z,81.83
2019-03-19T07:29:47.362Z,81.63
2019-03-19T07:34:54.436Z,80.24
2019-03-19T07:40:01.430Z,80.96
2019-03-19T07:45:11.455Z,81.28
2019-03-19T07:50:18.924Z,81.77
2019-03-19T07:55:26.245Z,80.58
2019-03-19T08:00:32.244Z,78.81
2019-03-19T08:05:39.397Z,79.99
2019-03-19T08:10:46.431Z,79.99
2019-03-19T08:15:53.445Z,78.79
2019-03-19T08:21:00.442Z,79.29
2019-03-19T08:26:06.300Z,79.34
2019-03-19T08:31:13.394Z,77.74
2019-03-19T08:36:19.271Z,77.66
2019-03-19T08:41:26.358Z,76.69
2019-03-19T08:46:33.545Z,76.10
2019-03-19T08:51:39.487Z,75.28
2019-03-19T08:56:46.445Z,75.28
2019-03-19T09:01:53.497Z,75.51
2019-03-19T09:06:59.306Z,77.51
2019-03-19T09:12:06.419Z,74.87
2019-03-19T09:17:13.437Z,74.87
2019-03-19T09:22:19.977Z,75.40
2019-03-19T09:27:27.379Z,75.88
2019-03-19T09:32:34.560Z,73.36
2019-03-19T09:37:44.922Z,72.65
2019-03-19T09:42:51.804Z,71.93
2019-03-19T09:47:59.118Z,71.93
2019-03-19T09:53:05.272Z,70.12
2019-03-19T09:58:11.286Z,70.65
2019-03-19T10:03:18.446Z,72.51
2019-03-19T10:08:25.461Z,71.54
2019-03-19T10:13:32.426Z,71.72
2019-03-19T10:18:40.324Z,71.68
2019-03-19T10:23:47.428Z,72.58
2019-03-19T10:28:55.030Z,72.58
2019-03-19T10:34:02.231Z,70.57
2019-03-19T10:39:10.516Z,71.41
2019-03-19T10:44:32.553Z,72.21
2019-03-19T10:49:41.025Z,69.43
2019-03-19T10:54:48.265Z,69.43
2019-03-19T11:00:04.925Z,69.17
2019-03-19T11:05:13.459Z,69.58
2019-03-19T11:12:36.751Z,67.53
2019-03-19T11:17:42.662Z,66.82
2019-03-19T11:22:50.060Z,65.74
2019-03-19T11:27:56.251Z,64.82
2019-03-19T11:33:02.256Z,65.84
2019-03-19T11:38:09.438Z,64.36
2019-03-19T12:00:30.012Z,75.11
2019-03-19T12:05:38.459Z,60.36
2019-03-19T12:10:45.447Z,62.28
2019-03-19T12:15:52.613Z,60.24
2019-03-19T12:21:00.260Z,63.54
2019-03-19T12:26:08.432Z,63.54
2019-03-19T12:31:15.581Z,63.95
2019-03-19T12:36:21.381Z,65.33
2019-03-19T12:41:27.595Z,65.33
2019-03-19T12:46:34.451Z,65.28
2019-03-19T12:51:41.436Z,67.27
2019-03-19T12:56:48.522Z,67.46
2019-03-19T13:01:55.574Z,61.54
2019-03-19T13:07:02.505Z,61.28
2019-03-19T13:12:09.474Z,61.28
2019-03-19T13:17:16.659Z,62.17
2019-03-19T13:22:23.615Z,62.94
2019-03-19T13:27:30.505Z,62.17
2019-03-19T13:32:37.463Z,62.17
2019-03-19T13:37:44.515Z,60.09
2019-03-19T13:42:51.587Z,62.27
2019-03-19T13:47:58.445Z,60.70
2019-03-19T13:53:05.559Z,60.70
2019-03-19T13:58:12.435Z,62.87
2019-03-19T14:03:19.515Z,65.41
2019-03-19T14:08:26.571Z,60.50
2019-03-19T14:13:33.488Z,60.59
2019-03-19T14:18:40.550Z,62.27
2019-03-19T14:23:47.444Z,62.82
2019-03-19T14:28:54.747Z,62.30
2019-03-19T14:34:02.777Z,62.30
2019-03-19T14:39:11.705Z,62.35
2019-03-19T14:44:18.566Z,63.90
2019-03-19T14:49:25.444Z,62.63
2019-03-19T14:54:32.565Z,62.63
2019-03-19T14:59:39.438Z,64.27
2019-03-19T15:04:46.473Z,64.27
2019-03-19T15:09:53.439Z,64.21
2019-03-19T15:15:00.562Z,64.35
2019-03-19T15:20:12.079Z,64.78
2019-03-19T15:25:19.764Z,63.11
2019-03-19T15:30:26.574Z,61.08
2019-03-19T15:35:33.507Z,61.92
2019-03-19T15:40:40.446Z,61.92
2019-03-19T15:45:47.544Z,60.00
2019-03-19T15:50:54.502Z,60.79
2019-03-19T15:56:01.463Z,63.80
2019-03-19T16:01:08.452Z,63.92
2019-03-19T16:06:15.710Z,63.72
2019-03-19T16:11:22.565Z,66.46
2019-03-19T16:16:28.299Z,65.45
2019-03-19T16:21:35.429Z,68.73
2019-03-19T16:26:42.461Z,68.73
2019-03-19T16:31:51.206Z,67.16
2019-03-19T16:36:58.432Z,69.63
2019-03-19T16:42:05.544Z,69.83
2019-03-19T16:47:12.556Z,67.28
2019-03-19T16:52:19.428Z,68.57
2019-03-19T16:57:26.572Z,68.57
2019-03-19T17:02:33.480Z,67.06
2019-03-19T17:07:40.932Z,67.06
2019-03-19T17:12:51.460Z,70.01
2019-03-19T17:17:58.611Z,70.70
2019-03-19T17:23:05.615Z,70.22
2019-03-19T17:28:22.063Z,70.28
2019-03-19T17:33:21.591Z,70.28
2019-03-19T17:38:28.431Z,71.94
2019-03-19T17:43:35.531Z,71.94
2019-03-19T17:48:42.443Z,71.82
2019-03-19T17:53:49.550Z,71.82
2019-03-19T17:58:56.572Z,73.47
2019-03-19T18:04:03.542Z,73.47
2019-03-19T18:09:10.586Z,74.85
2019-03-19T18:14:17.448Z,75.35
2019-03-19T18:19:25.276Z,76.14
2019-03-19T18:24:32.426Z,76.66
2019-03-19T18:29:39.575Z,76.92
2019-03-19T18:34:46.576Z,77.52
2019-03-19T18:39:53.460Z,77.87
2019-03-19T18:45:00.458Z,77.87
2019-03-19T18:50:11.565Z,78.20
2019-03-19T18:55:18.576Z,78.39
2019-03-19T19:00:25.571Z,78.62
2019-03-19T19:05:32.577Z,78.62
2019-03-19T19:10:39.565Z,78.77
2019-03-19T19:15:46.437Z,78.77
2019-03-19T19:20:53.431Z,79.02
2019-03-19T19:26:00.409Z,79.25
2019-03-19T19:31:07.337Z,79.36
2019-03-19T19:36:14.448Z,79.60
2019-03-19T19:41:21.705Z,79.99
2019-03-19T19:46:28.564Z,80.01
2019-03-19T19:51:35.564Z,79.85
2019-03-19T19:56:42.376Z,79.85
2019-03-19T20:01:49.349Z,79.91
2019-03-19T20:06:56.348Z,79.92
2019-03-19T20:12:03.310Z,79.98
2019-03-19T20:17:10.391Z,80.20
2019-03-19T20:22:17.317Z,80.27
2019-03-19T20:27:24.459Z,80.27
2019-03-19T20:32:31.572Z,80.32
2019-03-19T20:37:39.558Z,80.22
2019-03-19T20:42:46.703Z,80.22
2019-03-19T20:47:53.565Z,80.40
2019-03-19T20:53:00.438Z,80.56
2019-03-19T20:58:08.856Z,80.56
2019-03-19T21:03:16.669Z,80.64
2019-03-19T21:08:24.038Z,80.62
2019-03-19T21:13:31.600Z,80.71
2019-03-19T21:18:38.473Z,80.87
2019-03-19T21:23:45.645Z,81.31
2019-03-19T21:28:52.599Z,81.31
2019-03-19T21:34:00.411Z,81.38
2019-03-19T21:39:09.761Z,81.51
2019-03-19T21:44:17.075Z,81.56
2019-03-19T21:49:24.577Z,81.41
2019-03-19T21:54:31.522Z,81.71
2019-03-19T21:59:38.418Z,81.85
2019-03-19T22:04:45.326Z,81.85
2019-03-19T22:09:51.233Z,81.90
2019-03-19T22:14:58.239Z,81.92
2019-03-19T22:20:05.397Z,81.78
2019-03-19T22:25:13.967Z,81.69
2019-03-19T22:30:20.860Z,81.87
2019-03-19T22:35:27.824Z,81.96
2019-03-19T22:40:34.674Z,82.17
2019-03-19T22:45:41.406Z,82.40
2019-03-19T22:50:48.342Z,82.51
2019-03-19T22:55:55.322Z,82.44
2019-03-19T23:01:02.485Z,82.36
2019-03-19T23:06:11.330Z,82.39
2019-03-19T23:11:18.314Z,82.37
2019-03-19T23:16:26.968Z,82.49
2019-03-19T23:21:32.863Z,82.59
2019-03-19T23:26:39.686Z,82.67
2019-03-19T23:31:46.427Z,82.67
2019-03-19T23:36:53.369Z,82.76
2019-03-19T23:42:01.498Z,82.68
2019-03-19T23:47:08.353Z,82.74
2019-03-19T23:53:29.422Z,83.08
2019-03-19T23:58:36.382Z,83.08
